sensor_id;sensor_type;location;lat;lon;timestamp;temperature;humidity
12370;DHT22;6249;52.128;9.986;2023-08-30T00:07:22;14.20;99.90
12370;DHT22;6249;52.128;9.986;2023-08-30T00:17:23;14.20;99.90
12370;DHT22;6249;52.128;9.986;2023-08-30T00:27:23;14.20;99.90
12370;DHT22;6249;52.128;9.986;2023-08-30T00:37:24;13.90;99.90
12370;DHT22;6249;52.128;9.986;2023-08-30T00:47:27;13.70;99.90
12370;DHT22;6249;52.128;9.986;2023-08-30T00:57:28;13.60;99.90
12370;DHT22;6249;52.128;9.986;2023-08-30T01:07:34;13.50;99.90
12370;DHT22;6249;52.128;9.986;2023-08-30T01:17:37;13.70;99.90
12370;DHT22;6249;52.128;9.986;2023-08-30T01:27:40;13.80;99.90
12370;DHT22;6249;52.128;9.986;2023-08-30T01:37:43;13.60;99.90
12370;DHT22;6249;52.128;9.986;2023-08-30T01:47:44;13.30;99.90
12370;DHT22;6249;52.128;9.986;2023-08-30T01:57:46;13.30;99.90
12370;DHT22;6249;52.128;9.986;2023-08-30T02:08:13;13.10;99.90
12370;DHT22;6249;52.128;9.986;2023-08-30T02:18:15;13.00;99.90
12370;DHT22;6249;52.128;9.986;2023-08-30T02:28:15;12.70;99.90
12370;DHT22;6249;52.128;9.986;2023-08-30T02:38:21;12.60;99.90
12370;DHT22;6249;52.128;9.986;2023-08-30T02:48:21;12.50;99.90
12370;DHT22;6249;52.128;9.986;2023-08-30T02:58:22;12.40;99.90
12370;DHT22;6249;52.128;9.986;2023-08-30T03:08:24;12.40;99.90
12370;DHT22;6249;52.128;9.986;2023-08-30T03:18:25;12.40;99.90
12370;DHT22;6249;52.128;9.986;2023-08-30T03:28:26;12.30;99.90
12370;DHT22;6249;52.128;9.986;2023-08-30T03:38:27;12.20;99.90
12370;DHT22;6249;52.128;9.986;2023-08-30T03:48:28;12.40;99.90
12370;DHT22;6249;52.128;9.986;2023-08-30T03:58:32;12.40;99.90
12370;DHT22;6249;52.128;9.986;2023-08-30T04:08:33;12.30;99.90
12370;DHT22;6249;52.128;9.986;2023-08-30T04:18:36;12.30;99.90
12370;DHT22;6249;52.128;9.986;2023-08-30T04:28:37;12.30;99.90
12370;DHT22;6249;52.128;9.986;2023-08-30T04:38:40;12.10;99.90
12370;DHT22;6249;52.128;9.986;2023-08-30T04:48:41;12.20;99.90
12370;DHT22;6249;52.128;9.986;2023-08-30T04:58:41;12.20;99.90
12370;DHT22;6249;52.128;9.986;2023-08-30T05:08:42;12.10;99.90
12370;DHT22;6249;52.128;9.986;2023-08-30T05:18:43;12.30;99.90
12370;DHT22;6249;52.128;9.986;2023-08-30T05:28:43;12.50;99.90
12370;DHT22;6249;52.128;9.986;2023-08-30T05:38:44;12.90;99.90
12370;DHT22;6249;52.128;9.986;2023-08-30T05:48:45;13.10;99.90
12370;DHT22;6249;52.128;9.986;2023-08-30T05:58:45;13.40;99.90
12370;DHT22;6249;52.128;9.986;2023-08-30T06:08:46;13.60;99.90
12370;DHT22;6249;52.128;9.986;2023-08-30T06:18:46;13.90;99.90
12370;DHT22;6249;52.128;9.986;2023-08-30T06:28:49;14.10;99.90
12370;DHT22;6249;52.128;9.986;2023-08-30T06:38:50;14.20;99.90
12370;DHT22;6249;52.128;9.986;2023-08-30T06:48:50;14.60;99.90
12370;DHT22;6249;52.128;9.986;2023-08-30T06:58:51;15.00;99.90
12370;DHT22;6249;52.128;9.986;2023-08-30T07:08:54;15.60;99.90
12370;DHT22;6249;52.128;9.986;2023-08-30T07:18:57;16.10;99.90
12370;DHT22;6249;52.128;9.986;2023-08-30T07:28:59;16.40;99.90
12370;DHT22;6249;52.128;9.986;2023-08-30T07:39:00;16.30;99.90
12370;DHT22;6249;52.128;9.986;2023-08-30T07:49:01;16.40;99.90
12370;DHT22;6249;52.128;9.986;2023-08-30T07:59:03;16.50;99.90
12370;DHT22;6249;52.128;9.986;2023-08-30T08:09:04;17.10;99.90
12370;DHT22;6249;52.128;9.986;2023-08-30T08:19:05;17.40;99.90
12370;DHT22;6249;52.128;9.986;2023-08-30T08:29:11;17.90;99.90
12370;DHT22;6249;52.128;9.986;2023-08-30T08:39:11;18.70;99.90
12370;DHT22;6249;52.128;9.986;2023-08-30T08:49:16;18.50;99.90
12370;DHT22;6249;52.128;9.986;2023-08-30T08:59:17;18.60;99.90
12370;DHT22;6249;52.128;9.986;2023-08-30T09:09:19;18.60;99.90
12370;DHT22;6249;52.128;9.986;2023-08-30T09:19:20;18.90;99.90
12370;DHT22;6249;52.128;9.986;2023-08-30T09:29:22;19.40;99.90
12370;DHT22;6249;52.128;9.986;2023-08-30T09:39:23;20.10;99.90
12370;DHT22;6249;52.128;9.986;2023-08-30T09:49:27;20.70;99.90
12370;DHT22;6249;52.128;9.986;2023-08-30T09:59:27;21.50;99.90
12370;DHT22;6249;52.128;9.986;2023-08-30T10:09:31;21.70;99.90
12370;DHT22;6249;52.128;9.986;2023-08-30T10:19:33;22.80;99.90
12370;DHT22;6249;52.128;9.986;2023-08-30T10:29:35;22.20;99.90
12370;DHT22;6249;52.128;9.986;2023-08-30T10:39:41;21.40;99.90
12370;DHT22;6249;52.128;9.986;2023-08-30T10:49:46;22.00;99.90
12370;DHT22;6249;52.128;9.986;2023-08-30T11:10:10;22.80;99.90
12370;DHT22;6249;52.128;9.986;2023-08-30T11:20:14;23.50;99.90
12370;DHT22;6249;52.128;9.986;2023-08-30T11:30:19;23.40;99.80
12370;DHT22;6249;52.128;9.986;2023-08-30T11:40:22;21.80;99.90
12370;DHT22;6249;52.128;9.986;2023-08-30T11:50:23;20.80;99.90
12370;DHT22;6249;52.128;9.986;2023-08-30T12:00:23;20.40;99.90
12370;DHT22;6249;52.128;9.986;2023-08-30T12:10:30;20.20;99.90
12370;DHT22;6249;52.128;9.986;2023-08-30T12:20:34;20.00;99.90
12370;DHT22;6249;52.128;9.986;2023-08-30T12:30:35;20.20;99.90
12370;DHT22;6249;52.128;9.986;2023-08-30T12:40:38;22.10;99.90
12370;DHT22;6249;52.128;9.986;2023-08-30T12:50:43;23.80;99.90
12370;DHT22;6249;52.128;9.986;2023-08-30T13:00:46;25.60;97.20
12370;DHT22;6249;52.128;9.986;2023-08-30T13:10:46;27.10;96.00
12370;DHT22;6249;52.128;9.986;2023-08-30T13:20:54;25.40;97.00
12370;DHT22;6249;52.128;9.986;2023-08-30T13:30:57;23.50;97.90
12370;DHT22;6249;52.128;9.986;2023-08-30T13:41:00;22.60;98.20
12370;DHT22;6249;52.128;9.986;2023-08-30T13:51:03;21.90;99.90
12370;DHT22;6249;52.128;9.986;2023-08-30T14:01:04;20.80;99.90
12370;DHT22;6249;52.128;9.986;2023-08-30T14:11:05;21.40;99.90
12370;DHT22;6249;52.128;9.986;2023-08-30T14:21:08;25.10;99.90
12370;DHT22;6249;52.128;9.986;2023-08-30T14:31:10;27.40;94.80
12370;DHT22;6249;52.128;9.986;2023-08-30T14:41:10;24.80;97.40
12370;DHT22;6249;52.128;9.986;2023-08-30T14:51:12;23.70;99.10
12370;DHT22;6249;52.128;9.986;2023-08-30T15:01:13;22.90;99.90
12370;DHT22;6249;52.128;9.986;2023-08-30T15:11:20;22.40;99.90
12370;DHT22;6249;52.128;9.986;2023-08-30T15:21:21;22.20;99.60
12370;DHT22;6249;52.128;9.986;2023-08-30T15:31:22;21.80;99.90
12370;DHT22;6249;52.128;9.986;2023-08-30T15:41:25;21.40;99.90
12370;DHT22;6249;52.128;9.986;2023-08-30T15:51:25;21.10;99.90
12370;DHT22;6249;52.128;9.986;2023-08-30T16:01:26;20.80;99.90
12370;DHT22;6249;52.128;9.986;2023-08-30T16:11:27;20.60;99.90
12370;DHT22;6249;52.128;9.986;2023-08-30T16:21:28;19.20;99.90
12370;DHT22;6249;52.128;9.986;2023-08-30T16:31:29;18.50;99.90
12370;DHT22;6249;52.128;9.986;2023-08-30T16:41:30;18.30;99.90
12370;DHT22;6249;52.128;9.986;2023-08-30T16:51:31;18.00;99.90
12370;DHT22;6249;52.128;9.986;2023-08-30T17:01:32;18.10;99.90
12370;DHT22;6249;52.128;9.986;2023-08-30T17:11:32;17.80;99.90
12370;DHT22;6249;52.128;9.986;2023-08-30T17:21:33;17.20;99.90
12370;DHT22;6249;52.128;9.986;2023-08-30T17:31:34;16.80;99.90
12370;DHT22;6249;52.128;9.986;2023-08-30T17:41:37;15.90;99.90
12370;DHT22;6249;52.128;9.986;2023-08-30T17:51:38;16.50;99.90
12370;DHT22;6249;52.128;9.986;2023-08-30T18:01:39;16.10;99.90
12370;DHT22;6249;52.128;9.986;2023-08-30T18:11:42;15.40;99.90
12370;DHT22;6249;52.128;9.986;2023-08-30T18:21:42;15.40;99.90
12370;DHT22;6249;52.128;9.986;2023-08-30T18:31:47;15.40;99.90
12370;DHT22;6249;52.128;9.986;2023-08-30T18:41:50;15.40;99.90
12370;DHT22;6249;52.128;9.986;2023-08-30T18:51:51;15.40;99.90
12370;DHT22;6249;52.128;9.986;2023-08-30T19:01:51;15.20;99.90
12370;DHT22;6249;52.128;9.986;2023-08-30T19:11:56;15.00;99.90
12370;DHT22;6249;52.128;9.986;2023-08-30T19:21:57;15.10;99.90
12370;DHT22;6249;52.128;9.986;2023-08-30T19:32:00;15.60;99.90
12370;DHT22;6249;52.128;9.986;2023-08-30T19:42:03;15.40;99.90
12370;DHT22;6249;52.128;9.986;2023-08-30T19:52:04;15.20;99.90
12370;DHT22;6249;52.128;9.986;2023-08-30T20:02:05;15.20;99.90
12370;DHT22;6249;52.128;9.986;2023-08-30T20:12:08;15.10;99.90
12370;DHT22;6249;52.128;9.986;2023-08-30T20:22:09;14.90;99.90
12370;DHT22;6249;52.128;9.986;2023-08-30T20:32:09;14.90;99.90
12370;DHT22;6249;52.128;9.986;2023-08-30T20:42:12;14.80;99.90
12370;DHT22;6249;52.128;9.986;2023-08-30T20:52:13;14.80;99.90
12370;DHT22;6249;52.128;9.986;2023-08-30T21:02:16;14.70;99.90
12370;DHT22;6249;52.128;9.986;2023-08-30T21:12:17;14.20;99.90
12370;DHT22;6249;52.128;9.986;2023-08-30T21:22:20;14.60;99.90
12370;DHT22;6249;52.128;9.986;2023-08-30T21:32:23;14.50;99.90
12370;DHT22;6249;52.128;9.986;2023-08-30T21:42:23;14.50;99.90
12370;DHT22;6249;52.128;9.986;2023-08-30T21:52:27;14.50;99.90
12370;DHT22;6249;52.128;9.986;2023-08-30T22:02:28;14.40;99.90
12370;DHT22;6249;52.128;9.986;2023-08-30T22:12:29;14.30;99.90
12370;DHT22;6249;52.128;9.986;2023-08-30T22:22:34;14.50;99.90
12370;DHT22;6249;52.128;9.986;2023-08-30T22:32:38;14.40;99.90
12370;DHT22;6249;52.128;9.986;2023-08-30T22:42:39;14.50;99.90
12370;DHT22;6249;52.128;9.986;2023-08-30T22:52:42;14.40;99.90
12370;DHT22;6249;52.128;9.986;2023-08-30T23:02:43;14.40;99.90
12370;DHT22;6249;52.128;9.986;2023-08-30T23:12:43;14.40;99.90
12370;DHT22;6249;52.128;9.986;2023-08-30T23:22:44;14.20;99.90
12370;DHT22;6249;52.128;9.986;2023-08-30T23:32:47;14.20;99.90
12370;DHT22;6249;52.128;9.986;2023-08-30T23:42:50;14.10;99.90
12370;DHT22;6249;52.128;9.986;2023-08-30T23:52:51;14.00;99.90
